Time;durP1;ratioP1;P1;durP2;ratioP2;P2;SDS_P1;SDS_P2;PMS_P1;PMS_P2;Temp;Humidity;BMP_temperature;BMP_pressure;BME280_temperature;BME280_humidity;BME280_pressure;Samples;Min_cycle;Max_cycle;Signal;HPM_P1;HPM_P2
2023/07/15 00:02:23;;;;;;;5.50;2.17;;;;;;;;;;4931810;28;99428;-78
2023/07/15 00:04:50;;;;;;;3.63;2.50;;;;;;;;;;4933402;28;99868;-78
2023/07/15 00:07:16;;;;;;;9.00;2.72;;;;;;;;;;4932567;28;98403;-78
2023/07/15 00:09:43;;;;;;;7.32;2.65;;;;;;;;;;4933316;28;99367;-77
2023/07/15 00:12:09;;;;;;;6.13;2.40;;;;;;;;;;4933440;28;100240;-78
2023/07/15 00:14:36;;;;;;;3.28;2.42;;;;;;;;;;4933637;28;98128;-78
2023/07/15 00:17:02;;;;;;;4.50;2.22;;;;;;;;;;4933673;28;99500;-77
2023/07/15 00:19:29;;;;;;;5.22;2.13;;;;;;;;;;4933755;28;100284;-78
2023/07/15 00:21:56;;;;;;;6.55;2.72;;;;;;;;;;4936786;28;98219;-78
2023/07/15 00:24:23;;;;;;;3.67;2.17;;;;;;;;;;4933964;28;100132;-78
2023/07/15 00:26:50;;;;;;;2.38;2.17;;;;;;;;;;4933737;28;98314;-78
2023/07/15 00:29:16;;;;;;;3.42;1.90;;;;;;;;;;4932709;28;98402;-78
2023/07/15 00:31:43;;;;;;;2.55;2.35;;;;;;;;;;4951816;28;99929;-78
2023/07/15 00:34:10;;;;;;;8.90;2.17;;;;;;;;;;4953194;28;98170;-78
2023/07/15 00:36:37;;;;;;;3.15;2.45;;;;;;;;;;4952275;28;98473;-77
2023/07/15 00:39:05;;;;;;;4.57;2.10;;;;;;;;;;4951991;28;101427;-78
2023/07/15 00:41:33;;;;;;;3.17;2.10;;;;;;;;;;4913900;28;97917;-78
2023/07/15 00:44:00;;;;;;;6.07;2.28;;;;;;;;;;4916211;28;99377;-77
2023/07/15 00:46:28;;;;;;;5.45;2.20;;;;;;;;;;4913644;28;98216;-78
2023/07/15 00:48:57;;;;;;;4.38;2.40;;;;;;;;;;4932795;28;98224;-79
2023/07/15 00:51:25;;;;;;;2.08;1.77;;;;;;;;;;4931786;28;101782;-79
2023/07/15 00:53:53;;;;;;;2.17;2.08;;;;;;;;;;4931427;28;98283;-78
2023/07/15 00:56:21;;;;;;;6.25;1.98;;;;;;;;;;4931687;28;98376;-79
2023/07/15 00:58:48;;;;;;;7.93;2.10;;;;;;;;;;4932756;28;98834;-78
2023/07/15 01:01:14;;;;;;;2.15;1.95;;;;;;;;;;4931562;28;98370;-78
2023/07/15 01:03:43;;;;;;;2.20;2.00;;;;;;;;;;4935451;28;98958;-78
2023/07/15 01:06:11;;;;;;;7.25;2.40;;;;;;;;;;4931270;28;98247;-78
2023/07/15 01:08:38;;;;;;;4.72;2.15;;;;;;;;;;4932046;28;98614;-78
2023/07/15 01:11:06;;;;;;;8.60;2.00;;;;;;;;;;4930834;28;99886;-77
2023/07/15 01:13:34;;;;;;;3.38;2.05;;;;;;;;;;4932663;28;98221;-78
2023/07/15 01:16:00;;;;;;;3.40;1.70;;;;;;;;;;4933254;28;98284;-79
2023/07/15 01:18:27;;;;;;;6.70;2.10;;;;;;;;;;4931439;28;100041;-78
2023/07/15 01:20:58;;;;;;;1.80;1.70;;;;;;;;;;4933137;28;98458;-78
2023/07/15 01:23:27;;;;;;;2.72;2.00;;;;;;;;;;4931895;28;99344;-78
2023/07/15 01:25:54;;;;;;;5.60;1.90;;;;;;;;;;4949336;28;100924;-78
2023/07/15 01:28:21;;;;;;;1.92;1.83;;;;;;;;;;4931117;28;101605;-78
2023/07/15 01:30:48;;;;;;;8.50;1.90;;;;;;;;;;4932142;28;98920;-78
2023/07/15 01:33:18;;;;;;;3.60;2.08;;;;;;;;;;4946556;28;98305;-78
2023/07/15 01:35:47;;;;;;;3.15;1.90;;;;;;;;;;4930857;28;98850;-78
2023/07/15 01:38:14;;;;;;;2.28;1.77;;;;;;;;;;4931483;28;98793;-78
2023/07/15 01:40:41;;;;;;;2.95;1.88;;;;;;;;;;4932301;28;98246;-78
2023/07/15 01:43:07;;;;;;;1.85;1.70;;;;;;;;;;4929537;28;100687;-77
2023/07/15 01:45:33;;;;;;;1.98;1.73;;;;;;;;;;4929270;28;100752;-77
2023/07/15 01:48:00;;;;;;;2.70;2.22;;;;;;;;;;4933921;28;98133;-78
2023/07/15 01:50:26;;;;;;;2.05;1.85;;;;;;;;;;4931829;28;98706;-78
2023/07/15 01:52:54;;;;;;;2.53;1.92;;;;;;;;;;4931160;28;98279;-78
2023/07/15 01:55:21;;;;;;;4.07;1.98;;;;;;;;;;4938889;28;98192;-78
2023/07/15 01:57:47;;;;;;;4.00;1.90;;;;;;;;;;4951644;28;98859;-77
2023/07/15 02:00:16;;;;;;;4.10;1.80;;;;;;;;;;4948640;28;98280;-77
2023/07/15 02:02:43;;;;;;;2.08;1.98;;;;;;;;;;4950059;28;100234;-77
2023/07/15 02:05:10;;;;;;;5.68;1.75;;;;;;;;;;4936959;28;100131;-77
2023/07/15 02:07:37;;;;;;;3.65;1.98;;;;;;;;;;4931241;28;98156;-77
2023/07/15 02:10:03;;;;;;;4.15;1.60;;;;;;;;;;4934927;28;99790;-77
2023/07/15 02:12:31;;;;;;;1.80;1.70;;;;;;;;;;4931028;28;99333;-77
2023/07/15 02:14:57;;;;;;;3.67;1.83;;;;;;;;;;4931589;28;98338;-77
2023/07/15 02:17:23;;;;;;;5.72;2.42;;;;;;;;;;4930082;28;101105;-77
2023/07/15 02:19:50;;;;;;;5.63;1.90;;;;;;;;;;4931666;28;98803;-77
2023/07/15 02:22:16;;;;;;;3.40;1.73;;;;;;;;;;4925923;28;101138;-78
2023/07/15 02:24:43;;;;;;;5.50;1.77;;;;;;;;;;4911567;28;98733;-78
2023/07/15 02:27:11;;;;;;;8.15;1.88;;;;;;;;;;4912441;28;98237;-78
2023/07/15 02:29:37;;;;;;;5.20;1.95;;;;;;;;;;4922298;28;98621;-78
2023/07/15 02:32:04;;;;;;;2.17;1.67;;;;;;;;;;4934703;28;98746;-78
2023/07/15 02:34:31;;;;;;;1.75;1.58;;;;;;;;;;4930387;28;98481;-78
2023/07/15 02:36:57;;;;;;;10.75;1.88;;;;;;;;;;4931662;28;98702;-78
2023/07/15 02:39:23;;;;;;;2.33;1.92;;;;;;;;;;4930073;28;98248;-78
2023/07/15 02:41:50;;;;;;;1.80;1.58;;;;;;;;;;4945979;28;101113;-78
2023/07/15 02:44:16;;;;;;;3.47;2.17;;;;;;;;;;4931119;28;100124;-77
2023/07/15 02:46:43;;;;;;;4.75;2.20;;;;;;;;;;4931871;28;98212;-78
2023/07/15 02:49:09;;;;;;;3.80;1.80;;;;;;;;;;4928546;28;98111;-78
2023/07/15 02:51:36;;;;;;;1.67;1.50;;;;;;;;;;4927386;28;100777;-78
2023/07/15 02:54:03;;;;;;;2.10;1.88;;;;;;;;;;4935372;28;97981;-78
2023/07/15 02:56:29;;;;;;;2.03;1.70;;;;;;;;;;4929655;28;101831;-78
2023/07/15 02:58:55;;;;;;;2.08;1.92;;;;;;;;;;4931816;28;98203;-78
2023/07/15 03:01:22;;;;;;;3.03;1.65;;;;;;;;;;4930874;28;99413;-77
2023/07/15 03:03:48;;;;;;;2.00;1.85;;;;;;;;;;4932173;28;98993;-78
2023/07/15 03:06:15;;;;;;;2.30;1.85;;;;;;;;;;4929395;28;98537;-78
2023/07/15 03:08:44;;;;;;;3.47;2.08;;;;;;;;;;4932298;28;98421;-77
2023/07/15 03:11:11;;;;;;;4.82;1.55;;;;;;;;;;4931363;28;99990;-78
2023/07/15 03:13:38;;;;;;;2.85;2.00;;;;;;;;;;4936217;28;98244;-79
2023/07/15 03:16:05;;;;;;;4.85;1.67;;;;;;;;;;4935618;28;98764;-79
2023/07/15 03:18:31;;;;;;;2.55;1.70;;;;;;;;;;4940542;28;98248;-79
2023/07/15 03:20:58;;;;;;;2.10;1.92;;;;;;;;;;4942135;28;97979;-79
2023/07/15 03:23:24;;;;;;;3.13;1.98;;;;;;;;;;4941047;28;98921;-80
2023/07/15 03:25:51;;;;;;;4.45;1.77;;;;;;;;;;4941119;28;97912;-78
2023/07/15 03:28:20;;;;;;;3.63;2.20;;;;;;;;;;4932175;28;99910;-77
2023/07/15 03:30:48;;;;;;;6.07;1.95;;;;;;;;;;4929595;28;99178;-77
2023/07/15 03:33:17;;;;;;;5.38;1.90;;;;;;;;;;4929558;28;98337;-77
2023/07/15 03:35:44;;;;;;;4.90;1.85;;;;;;;;;;4933938;28;99431;-77
2023/07/15 03:38:11;;;;;;;2.17;1.95;;;;;;;;;;4930262;28;98778;-80
2023/07/15 03:40:37;;;;;;;6.28;2.05;;;;;;;;;;4931363;28;98343;-77
2023/07/15 03:43:04;;;;;;;4.65;1.73;;;;;;;;;;4930775;28;98771;-78
2023/07/15 03:45:30;;;;;;;2.72;2.47;;;;;;;;;;4922998;28;98250;-78
2023/07/15 03:47:57;;;;;;;5.03;2.30;;;;;;;;;;4930569;28;99761;-78
2023/07/15 03:50:24;;;;;;;7.55;2.38;;;;;;;;;;4930162;28;98862;-77
2023/07/15 03:52:50;;;;;;;4.30;2.20;;;;;;;;;;4929815;28;98174;-79
2023/07/15 03:55:16;;;;;;;1.95;1.85;;;;;;;;;;4945267;28;98674;-78
2023/07/15 03:57:43;;;;;;;2.88;1.90;;;;;;;;;;4953094;28;98912;-78
2023/07/15 04:00:17;;;;;;;2.47;2.17;;;;;;;;;;4949526;28;99827;-78
2023/07/15 04:02:44;;;;;;;3.83;2.38;;;;;;;;;;4949404;28;99836;-78
2023/07/15 04:05:11;;;;;;;2.40;2.28;;;;;;;;;;4949320;28;99593;-79
2023/07/15 04:07:40;;;;;;;22.02;2.70;;;;;;;;;;4949589;28;99354;-78
2023/07/15 04:10:07;;;;;;;5.10;2.45;;;;;;;;;;4949541;28;98861;-78
2023/07/15 04:12:33;;;;;;;2.10;1.90;;;;;;;;;;4932850;28;98156;-78
2023/07/15 04:14:59;;;;;;;3.33;2.33;;;;;;;;;;4929254;28;98677;-78
2023/07/15 04:17:26;;;;;;;4.20;2.15;;;;;;;;;;4930237;28;98890;-78
2023/07/15 04:19:52;;;;;;;5.78;2.25;;;;;;;;;;4933684;28;98204;-78
2023/07/15 04:22:19;;;;;;;4.75;2.35;;;;;;;;;;4929761;28;100747;-79
2023/07/15 04:24:45;;;;;;;2.35;1.98;;;;;;;;;;4930293;28;98076;-79
2023/07/15 04:27:12;;;;;;;8.50;2.30;;;;;;;;;;4928690;28;98749;-78
2023/07/15 04:29:38;;;;;;;2.85;2.10;;;;;;;;;;4930971;28;98904;-78
2023/07/15 04:32:05;;;;;;;3.83;2.55;;;;;;;;;;4930597;28;98536;-78
2023/07/15 04:34:31;;;;;;;4.90;2.72;;;;;;;;;;4929833;28;100184;-78
2023/07/15 04:36:58;;;;;;;2.90;2.17;;;;;;;;;;4931325;28;100178;-79
2023/07/15 04:39:27;;;;;;;4.05;2.20;;;;;;;;;;4930447;28;98201;-79
2023/07/15 04:41:53;;;;;;;2.08;1.80;;;;;;;;;;4933722;28;99416;-78
2023/07/15 04:44:20;;;;;;;2.35;2.15;;;;;;;;;;4938613;28;98286;-78
2023/07/15 04:46:46;;;;;;;3.28;1.95;;;;;;;;;;4939328;28;100672;-79
2023/07/15 04:49:13;;;;;;;2.45;2.08;;;;;;;;;;4937189;28;99827;-79
2023/07/15 04:51:39;;;;;;;5.53;2.20;;;;;;;;;;4914509;28;98276;-79
2023/07/15 04:54:06;;;;;;;5.65;2.08;;;;;;;;;;4930509;28;99527;-79
2023/07/15 04:56:33;;;;;;;3.22;1.92;;;;;;;;;;4932791;28;100105;-78
2023/07/15 04:58:59;;;;;;;2.35;2.00;;;;;;;;;;4933508;28;98311;-78
2023/07/15 05:01:26;;;;;;;4.55;2.50;;;;;;;;;;4933488;28;99711;-78
2023/07/15 05:03:52;;;;;;;2.30;2.10;;;;;;;;;;4935391;28;98335;-78
2023/07/15 05:06:21;;;;;;;2.40;2.10;;;;;;;;;;4932234;28;99353;-78
2023/07/15 05:08:48;;;;;;;5.25;2.55;;;;;;;;;;4932999;28;99053;-78
2023/07/15 05:11:15;;;;;;;2.90;2.05;;;;;;;;;;4931885;28;98269;-78
2023/07/15 05:13:43;;;;;;;3.85;2.50;;;;;;;;;;4932514;28;99264;-78
2023/07/15 05:16:09;;;;;;;5.05;2.53;;;;;;;;;;4931200;28;100111;-78
2023/07/15 05:18:36;;;;;;;4.85;2.78;;;;;;;;;;4933838;28;98375;-78
2023/07/15 05:21:03;;;;;;;5.55;2.35;;;;;;;;;;4952474;28;98532;-78
2023/07/15 05:23:31;;;;;;;9.77;2.88;;;;;;;;;;4954229;28;99912;-78
2023/07/15 05:25:59;;;;;;;2.47;1.77;;;;;;;;;;4951892;28;99605;-78
2023/07/15 05:28:32;;;;;;;4.95;2.20;;;;;;;;;;4951548;28;99988;-79
2023/07/15 05:30:59;;;;;;;2.63;2.33;;;;;;;;;;4951190;28;98237;-79
2023/07/15 05:33:26;;;;;;;2.78;2.22;;;;;;;;;;4951899;28;99739;-78
2023/07/15 05:35:54;;;;;;;5.25;2.25;;;;;;;;;;4942754;28;100187;-78
2023/07/15 05:38:22;;;;;;;2.20;2.00;;;;;;;;;;4931723;28;98431;-78
2023/07/15 05:40:48;;;;;;;1.80;1.70;;;;;;;;;;4931608;28;99638;-79
2023/07/15 05:43:15;;;;;;;6.30;2.08;;;;;;;;;;4932003;28;99038;-78
2023/07/15 05:45:41;;;;;;;2.80;2.13;;;;;;;;;;4923612;28;98274;-79
2023/07/15 05:48:08;;;;;;;2.38;2.00;;;;;;;;;;4911032;28;100000;-79
2023/07/15 05:50:37;;;;;;;10.23;2.42;;;;;;;;;;4928900;28;98194;-79
2023/07/15 05:53:04;;;;;;;11.80;2.33;;;;;;;;;;4936524;28;99404;-78
2023/07/15 05:55:32;;;;;;;3.38;1.85;;;;;;;;;;4950847;28;99023;-78
2023/07/15 05:57:58;;;;;;;4.72;2.20;;;;;;;;;;4951649;28;98464;-79
2023/07/15 06:00:25;;;;;;;4.18;2.67;;;;;;;;;;4950292;28;98691;-79
2023/07/15 06:02:51;;;;;;;6.80;2.33;;;;;;;;;;4934200;28;100242;-79
2023/07/15 06:05:18;;;;;;;6.65;1.70;;;;;;;;;;4927355;28;99414;-80
2023/07/15 06:07:44;;;;;;;3.60;1.73;;;;;;;;;;4932373;28;99690;-80
2023/07/15 06:10:11;;;;;;;2.45;1.73;;;;;;;;;;4931454;28;98214;-79
2023/07/15 06:12:37;;;;;;;3.70;2.22;;;;;;;;;;4929833;28;98505;-79
2023/07/15 06:15:04;;;;;;;2.03;1.60;;;;;;;;;;4931032;28;98833;-79
2023/07/15 06:17:31;;;;;;;2.00;1.80;;;;;;;;;;4929774;28;99162;-79
2023/07/15 06:19:57;;;;;;;2.60;1.33;;;;;;;;;;4929004;28;99453;-79
2023/07/15 06:22:24;;;;;;;3.05;2.35;;;;;;;;;;4931551;28;99986;-79
2023/07/15 06:24:50;;;;;;;1.27;1.20;;;;;;;;;;4930468;28;98144;-80
2023/07/15 06:27:17;;;;;;;3.08;1.50;;;;;;;;;;4936872;28;99557;-77
2023/07/15 06:29:47;;;;;;;2.75;1.42;;;;;;;;;;4953241;28;100018;-76
2023/07/15 06:32:13;;;;;;;3.42;1.10;;;;;;;;;;4934444;28;98529;-74
2023/07/15 06:34:40;;;;;;;4.07;1.15;;;;;;;;;;4930142;28;99903;-75
2023/07/15 06:37:06;;;;;;;1.17;1.08;;;;;;;;;;4931398;28;98159;-74
2023/07/15 06:39:32;;;;;;;1.10;1.10;;;;;;;;;;4925876;28;98657;-74
2023/07/15 06:41:59;;;;;;;5.30;1.52;;;;;;;;;;4921404;28;99871;-74
2023/07/15 06:44:26;;;;;;;7.38;1.30;;;;;;;;;;4943270;28;99112;-75
2023/07/15 06:46:52;;;;;;;1.38;1.27;;;;;;;;;;4930359;28;98496;-73
2023/07/15 06:49:19;;;;;;;3.20;2.13;;;;;;;;;;4932710;28;99038;-73
2023/07/15 06:51:45;;;;;;;0.93;0.93;;;;;;;;;;4934539;28;98211;-73
2023/07/15 06:54:11;;;;;;;2.08;1.35;;;;;;;;;;4930446;28;100071;-73
2023/07/15 06:56:38;;;;;;;3.03;0.90;;;;;;;;;;4930161;28;98254;-73
2023/07/15 06:59:04;;;;;;;1.23;1.13;;;;;;;;;;4917284;28;100131;-73
2023/07/15 07:01:31;;;;;;;1.60;1.50;;;;;;;;;;4910987;28;100154;-74
2023/07/15 07:03:58;;;;;;;4.30;1.13;;;;;;;;;;4912850;28;98694;-73
2023/07/15 07:06:25;;;;;;;1.23;0.95;;;;;;;;;;4926580;28;99457;-73
2023/07/15 07:08:52;;;;;;;1.40;1.00;;;;;;;;;;4929595;28;100076;-73
2023/07/15 07:11:18;;;;;;;2.28;0.95;;;;;;;;;;4932861;28;98292;-73
2023/07/15 07:13:44;;;;;;;5.22;1.00;;;;;;;;;;4922553;28;98572;-72
2023/07/15 07:16:11;;;;;;;1.35;0.90;;;;;;;;;;4925288;28;98472;-73
2023/07/15 07:18:38;;;;;;;3.17;0.73;;;;;;;;;;4925361;28;99586;-73
2023/07/15 07:21:04;;;;;;;2.38;0.80;;;;;;;;;;4922583;28;99061;-73
2023/07/15 07:23:31;;;;;;;1.85;0.85;;;;;;;;;;4910930;28;99768;-72
2023/07/15 07:25:59;;;;;;;1.58;0.93;;;;;;;;;;4914354;28;98494;-73
2023/07/15 07:28:40;;;;;;;0.88;0.82;;;;;;;;;;4910738;28;99720;-73
2023/07/15 07:31:07;;;;;;;0.82;0.82;;;;;;;;;;4910389;28;98621;-73
2023/07/15 07:33:35;;;;;;;1.73;0.77;;;;;;;;;;4914476;28;98458;-73
2023/07/15 07:36:03;;;;;;;1.35;1.05;;;;;;;;;;4924602;28;98297;-73
2023/07/15 07:38:29;;;;;;;8.70;1.33;;;;;;;;;;4915885;28;99612;-74
2023/07/15 07:41:02;;;;;;;3.40;1.10;;;;;;;;;;4910896;28;98855;-73
2023/07/15 07:43:29;;;;;;;2.78;0.80;;;;;;;;;;4923309;28;98251;-74
2023/07/15 07:45:55;;;;;;;2.55;0.80;;;;;;;;;;4925853;28;99710;-74
2023/07/15 07:48:22;;;;;;;0.95;0.70;;;;;;;;;;4911665;28;99898;-73
2023/07/15 07:50:48;;;;;;;2.90;1.20;;;;;;;;;;4910070;28;98374;-74
2023/07/15 07:53:15;;;;;;;1.00;0.90;;;;;;;;;;4925168;28;99394;-74
2023/07/15 07:55:41;;;;;;;7.07;1.02;;;;;;;;;;4933543;28;98909;-75
2023/07/15 07:58:11;;;;;;;1.90;0.88;;;;;;;;;;4916908;28;99645;-74
2023/07/15 08:00:37;;;;;;;2.45;0.80;;;;;;;;;;4930547;28;98902;-74
2023/07/15 08:03:04;;;;;;;1.05;0.90;;;;;;;;;;4923613;28;98303;-73
2023/07/15 08:05:30;;;;;;;4.97;0.90;;;;;;;;;;4925161;28;99359;-72
2023/07/15 08:07:57;;;;;;;3.33;1.00;;;;;;;;;;4926671;28;99726;-72
2023/07/15 08:10:23;;;;;;;1.15;1.00;;;;;;;;;;4925159;28;99973;-73
2023/07/15 08:12:50;;;;;;;0.77;0.77;;;;;;;;;;4924509;28;99702;-74
2023/07/15 08:15:16;;;;;;;1.02;0.95;;;;;;;;;;4921751;28;100121;-74
2023/07/15 08:17:43;;;;;;;1.35;1.25;;;;;;;;;;4949306;28;98392;-74
2023/07/15 08:20:09;;;;;;;1.23;1.10;;;;;;;;;;4932139;28;99884;-73
2023/07/15 08:22:36;;;;;;;1.67;1.00;;;;;;;;;;4932032;28;98244;-73
2023/07/15 08:25:03;;;;;;;6.68;1.20;;;;;;;;;;4932381;28;99608;-73
2023/07/15 08:27:29;;;;;;;2.40;1.20;;;;;;;;;;4929429;28;99991;-77
2023/07/15 08:29:56;;;;;;;1.08;1.08;;;;;;;;;;4929873;28;98854;-76
2023/07/15 08:32:22;;;;;;;1.60;1.25;;;;;;;;;;4929491;28;98581;-76
2023/07/15 08:34:56;;;;;;;0.82;0.80;;;;;;;;;;4931990;28;99982;-77
2023/07/15 08:37:22;;;;;;;1.80;1.00;;;;;;;;;;4916031;28;98562;-75
2023/07/15 08:39:48;;;;;;;1.92;1.10;;;;;;;;;;4929405;28;99601;-77
2023/07/15 08:42:15;;;;;;;1.95;1.30;;;;;;;;;;4930742;28;98211;-75
2023/07/15 08:44:41;;;;;;;7.03;1.10;;;;;;;;;;4922542;28;99699;-77
2023/07/15 08:47:08;;;;;;;2.53;1.65;;;;;;;;;;4931394;28;100084;-77
2023/07/15 08:49:37;;;;;;;1.23;1.13;;;;;;;;;;4932363;28;98227;-76
2023/07/15 08:52:04;;;;;;;2.28;1.85;;;;;;;;;;4931752;28;100982;-75
2023/07/15 08:54:31;;;;;;;1.60;1.50;;;;;;;;;;4931457;28;99960;-75
2023/07/15 08:56:58;;;;;;;2.35;1.02;;;;;;;;;;4932180;28;98161;-76
2023/07/15 08:59:24;;;;;;;1.10;1.10;;;;;;;;;;4932641;28;98657;-76
2023/07/15 09:01:51;;;;;;;1.25;1.20;;;;;;;;;;4933851;28;100096;-77
2023/07/15 09:04:17;;;;;;;2.60;1.20;;;;;;;;;;4933153;28;98327;-77
2023/07/15 09:06:44;;;;;;;1.30;1.20;;;;;;;;;;4932371;28;99902;-76
2023/07/15 09:09:12;;;;;;;1.92;1.40;;;;;;;;;;4932195;28;98262;-76
2023/07/15 09:11:40;;;;;;;2.00;1.52;;;;;;;;;;4932466;28;98661;-78
2023/07/15 09:14:13;;;;;;;3.28;1.10;;;;;;;;;;4936987;28;100205;-77
2023/07/15 09:16:40;;;;;;;2.97;1.40;;;;;;;;;;4933940;28;98145;-77
2023/07/15 09:19:07;;;;;;;1.63;1.02;;;;;;;;;;4933992;28;98994;-77
2023/07/15 09:21:33;;;;;;;1.00;1.00;;;;;;;;;;4934566;28;99520;-78
2023/07/15 09:24:00;;;;;;;1.70;1.10;;;;;;;;;;4931891;28;99487;-77
2023/07/15 09:26:28;;;;;;;1.40;1.30;;;;;;;;;;4932247;28;99093;-77
2023/07/15 09:28:54;;;;;;;1.90;1.40;;;;;;;;;;4931311;28;98217;-77
2023/07/15 09:31:21;;;;;;;1.30;1.20;;;;;;;;;;4929200;28;99420;-77
2023/07/15 09:33:48;;;;;;;1.65;1.45;;;;;;;;;;4932157;28;98863;-79
2023/07/15 09:36:14;;;;;;;3.90;1.33;;;;;;;;;;4932071;28;98248;-78
2023/07/15 09:38:41;;;;;;;2.30;1.17;;;;;;;;;;4925208;28;99612;-77
2023/07/15 09:41:09;;;;;;;2.40;1.42;;;;;;;;;;4927179;28;100050;-78
2023/07/15 09:43:46;;;;;;;1.35;1.25;;;;;;;;;;4919318;28;99393;-78
2023/07/15 09:46:15;;;;;;;4.53;1.50;;;;;;;;;;4912453;28;100350;-77
2023/07/15 09:48:43;;;;;;;1.63;1.30;;;;;;;;;;4916042;28;99610;-76
2023/07/15 09:51:11;;;;;;;1.52;1.40;;;;;;;;;;4928460;28;99345;-78
2023/07/15 09:53:39;;;;;;;2.65;1.50;;;;;;;;;;4932179;28;99823;-78
2023/07/15 09:56:06;;;;;;;4.47;1.27;;;;;;;;;;4932115;28;98390;-77
2023/07/15 09:58:36;;;;;;;3.75;1.50;;;;;;;;;;4930516;28;98591;-76
2023/07/15 10:01:06;;;;;;;2.72;1.40;;;;;;;;;;4931708;28;100345;-79
2023/07/15 10:03:37;;;;;;;3.15;1.60;;;;;;;;;;4931883;28;98263;-78
2023/07/15 10:06:05;;;;;;;3.37;1.67;;;;;;;;;;4933921;28;99585;-78
2023/07/15 10:08:31;;;;;;;1.88;1.42;;;;;;;;;;4931725;28;98533;-78
2023/07/15 10:10:58;;;;;;;1.55;1.20;;;;;;;;;;4930537;28;99397;-77
2023/07/15 10:13:24;;;;;;;1.38;1.23;;;;;;;;;;4930605;28;100028;-77
2023/07/15 10:15:51;;;;;;;1.30;1.20;;;;;;;;;;4931467;28;98315;-75
2023/07/15 10:18:19;;;;;;;1.17;1.15;;;;;;;;;;4930050;28;98904;-77
2023/07/15 10:20:52;;;;;;;3.15;1.30;;;;;;;;;;4927830;28;98943;-77
2023/07/15 10:23:24;;;;;;;2.25;1.42;;;;;;;;;;4930299;28;98076;-77
2023/07/15 10:25:58;;;;;;;2.90;1.10;;;;;;;;;;4931241;28;99167;-78
2023/07/15 10:28:24;;;;;;;5.90;1.27;;;;;;;;;;4931992;28;99911;-78
2023/07/15 10:31:05;;;;;;;2.25;1.88;;;;;;;;;;4929296;28;99710;-77
2023/07/15 10:33:33;;;;;;;5.90;1.20;;;;;;;;;;4933779;28;100181;-77
2023/07/15 10:36:02;;;;;;;2.75;1.67;;;;;;;;;;4929182;28;98324;-78
2023/07/15 10:38:29;;;;;;;1.10;1.00;;;;;;;;;;4931503;28;98716;-76
2023/07/15 10:40:57;;;;;;;5.15;1.10;;;;;;;;;;4930212;28;100060;-77
2023/07/15 10:43:35;;;;;;;2.03;1.50;;;;;;;;;;4930777;28;98252;-77
2023/07/15 10:46:04;;;;;;;1.30;1.20;;;;;;;;;;4931634;28;98506;-78
2023/07/15 10:48:30;;;;;;;1.35;1.20;;;;;;;;;;4929874;28;100068;-77
2023/07/15 10:50:59;;;;;;;2.55;1.17;;;;;;;;;;4933290;28;98263;-77
2023/07/15 10:53:26;;;;;;;2.92;1.50;;;;;;;;;;4928936;28;100196;-77
2023/07/15 10:55:53;;;;;;;3.72;1.15;;;;;;;;;;4930506;28;98204;-78
2023/07/15 10:58:20;;;;;;;1.92;1.48;;;;;;;;;;4930302;28;98561;-78
2023/07/15 11:00:46;;;;;;;5.05;1.27;;;;;;;;;;4930277;28;99165;-77
2023/07/15 11:03:13;;;;;;;2.22;1.20;;;;;;;;;;4930481;28;97949;-78
2023/07/15 11:05:42;;;;;;;1.73;1.55;;;;;;;;;;4930150;28;98816;-78
2023/07/15 11:08:09;;;;;;;2.88;1.30;;;;;;;;;;4930227;28;98880;-78
2023/07/15 11:10:37;;;;;;;2.83;1.48;;;;;;;;;;4930932;28;98414;-78
2023/07/15 11:13:10;;;;;;;1.48;1.38;;;;;;;;;;4933837;28;99692;-78
2023/07/15 11:15:36;;;;;;;1.67;1.48;;;;;;;;;;4930064;28;98191;-78
2023/07/15 11:18:04;;;;;;;1.92;1.10;;;;;;;;;;4931461;28;98512;-77
2023/07/15 11:20:30;;;;;;;1.45;1.33;;;;;;;;;;4929948;28;99105;-78
2023/07/15 11:22:57;;;;;;;1.38;1.27;;;;;;;;;;4929791;28;98390;-78
2023/07/15 11:25:25;;;;;;;1.10;1.10;;;;;;;;;;4929712;28;99342;-77
2023/07/15 11:27:51;;;;;;;1.20;0.95;;;;;;;;;;4929873;28;99983;-77
2023/07/15 11:30:17;;;;;;;3.90;1.42;;;;;;;;;;4928966;28;98342;-76
2023/07/15 11:32:51;;;;;;;3.38;1.60;;;;;;;;;;4933900;28;98452;-76
2023/07/15 11:35:18;;;;;;;5.88;1.65;;;;;;;;;;4929893;28;98137;-78
2023/07/15 11:37:45;;;;;;;2.28;1.70;;;;;;;;;;4930205;28;98498;-78
2023/07/15 11:40:15;;;;;;;2.90;1.63;;;;;;;;;;4929964;28;99182;-78
2023/07/15 11:42:43;;;;;;;2.03;1.30;;;;;;;;;;4930675;28;98062;-78
2023/07/15 11:45:12;;;;;;;4.43;1.60;;;;;;;;;;4929564;28;98599;-77
2023/07/15 11:47:43;;;;;;;3.55;1.40;;;;;;;;;;4926303;28;98848;-77
2023/07/15 11:50:15;;;;;;;3.33;1.50;;;;;;;;;;4910226;28;98291;-78
2023/07/15 11:52:42;;;;;;;7.05;1.50;;;;;;;;;;4912355;28;99539;-79
2023/07/15 11:55:08;;;;;;;2.35;1.30;;;;;;;;;;4920915;28;100091;-77
2023/07/15 11:57:45;;;;;;;3.70;1.40;;;;;;;;;;4932727;28;99453;-77
2023/07/15 12:00:33;;;;;;;2.08;1.33;;;;;;;;;;4931849;28;100193;-77
2023/07/15 12:03:08;;;;;;;3.15;1.90;;;;;;;;;;4934077;28;98315;-77
2023/07/15 12:05:39;;;;;;;2.08;1.63;;;;;;;;;;4911959;28;98708;-77
2023/07/15 12:08:07;;;;;;;;;;;;;;;;;;4914923;28;100396;-77
2023/07/15 12:10:47;;;;;;;3.20;1.77;;;;;;;;;;4913887;28;101661;-76
2023/07/15 12:13:14;;;;;;;4.40;1.45;;;;;;;;;;4914339;28;99594;-77
2023/07/15 12:15:41;;;;;;;2.33;1.50;;;;;;;;;;4918366;28;99963;-77
2023/07/15 12:18:09;;;;;;;9.43;1.60;;;;;;;;;;4936676;28;98216;-77
2023/07/15 12:20:36;;;;;;;3.20;2.00;;;;;;;;;;4933071;28;100312;-76
2023/07/15 12:23:02;;;;;;;1.98;1.50;;;;;;;;;;4933363;28;98284;-76
2023/07/15 12:25:29;;;;;;;3.60;1.40;;;;;;;;;;4932184;28;99368;-77
2023/07/15 12:27:56;;;;;;;5.03;1.60;;;;;;;;;;4933023;28;100460;-76
2023/07/15 12:30:23;;;;;;;4.80;1.52;;;;;;;;;;4925376;28;98107;-77
2023/07/15 12:32:49;;;;;;;1.90;1.63;;;;;;;;;;4913458;28;101331;-77
2023/07/15 12:35:16;;;;;;;1.65;1.50;;;;;;;;;;4913386;28;99929;-77
2023/07/15 12:37:44;;;;;;;2.10;1.60;;;;;;;;;;4932231;28;98532;-78
2023/07/15 12:40:13;;;;;;;2.05;1.85;;;;;;;;;;4934173;28;99793;-79
2023/07/15 12:42:40;;;;;;;4.97;1.75;;;;;;;;;;4931686;28;98287;-78
2023/07/15 12:45:07;;;;;;;1.70;1.45;;;;;;;;;;4933526;28;99386;-77
2023/07/15 12:47:33;;;;;;;2.10;1.50;;;;;;;;;;4931959;28;98977;-76
2023/07/15 12:49:59;;;;;;;1.45;1.40;;;;;;;;;;4933330;28;98192;-76
2023/07/15 12:52:28;;;;;;;3.90;1.48;;;;;;;;;;4933035;28;98120;-76
2023/07/15 12:54:55;;;;;;;2.00;1.42;;;;;;;;;;4932168;28;99990;-76
2023/07/15 12:57:22;;;;;;;2.15;1.50;;;;;;;;;;4932828;28;98296;-79
2023/07/15 12:59:53;;;;;;;1.90;1.45;;;;;;;;;;4933507;28;98517;-77
2023/07/15 13:02:23;;;;;;;1.77;1.33;;;;;;;;;;4934782;28;98904;-79
2023/07/15 13:04:56;;;;;;;2.17;1.30;;;;;;;;;;4930886;28;98455;-76
2023/07/15 13:07:25;;;;;;;1.33;1.20;;;;;;;;;;4928494;28;99024;-76
2023/07/15 13:09:52;;;;;;;1.27;1.13;;;;;;;;;;4935772;28;98259;-76
2023/07/15 13:12:21;;;;;;;4.18;1.20;;;;;;;;;;4935396;28;98659;-76
2023/07/15 13:14:55;;;;;;;2.05;1.30;;;;;;;;;;4934618;28;99947;-76
2023/07/15 13:17:22;;;;;;;2.03;1.20;;;;;;;;;;4935103;28;98299;-76
2023/07/15 13:19:51;;;;;;;3.80;1.67;;;;;;;;;;4933237;28;100905;-77
2023/07/15 13:22:21;;;;;;;2.22;1.30;;;;;;;;;;4931344;28;99606;-76
2023/07/15 13:24:50;;;;;;;3.00;1.15;;;;;;;;;;4901527;28;99213;-77
2023/07/15 13:27:17;;;;;;;1.90;1.10;;;;;;;;;;4930611;28;100485;-76
2023/07/15 13:29:44;;;;;;;1.33;1.00;;;;;;;;;;4931067;28;98325;-76
2023/07/15 13:32:10;;;;;;;1.80;1.10;;;;;;;;;;4932449;28;98483;-78
2023/07/15 13:34:37;;;;;;;1.60;1.13;;;;;;;;;;4931713;28;98886;-78
2023/07/15 13:37:03;;;;;;;1.77;1.20;;;;;;;;;;4931987;28;98446;-77
2023/07/15 13:39:31;;;;;;;2.05;1.45;;;;;;;;;;4932673;28;98431;-77
2023/07/15 13:41:58;;;;;;;4.57;0.95;;;;;;;;;;4932102;28;98988;-77
2023/07/15 13:44:24;;;;;;;11.95;1.48;;;;;;;;;;4934271;28;98595;-78
2023/07/15 13:46:53;;;;;;;2.60;1.10;;;;;;;;;;4933453;28;99865;-79
2023/07/15 13:49:19;;;;;;;10.00;1.13;;;;;;;;;;4927362;28;98395;-78
2023/07/15 13:51:46;;;;;;;1.38;1.08;;;;;;;;;;4915762;28;98334;-78
2023/07/15 13:54:12;;;;;;;1.20;1.20;;;;;;;;;;4912500;28;100224;-78
2023/07/15 13:56:39;;;;;;;1.27;1.13;;;;;;;;;;4912000;28;98180;-79
2023/07/15 13:59:05;;;;;;;3.75;1.10;;;;;;;;;;4930642;28;99654;-76
2023/07/15 14:01:32;;;;;;;3.67;1.10;;;;;;;;;;4931632;28;99178;-77
2023/07/15 14:03:58;;;;;;;5.40;1.20;;;;;;;;;;4931781;28;98352;-76
2023/07/15 14:06:25;;;;;;;1.35;1.10;;;;;;;;;;4934306;28;98390;-79
2023/07/15 14:08:51;;;;;;;4.03;1.25;;;;;;;;;;4931695;28;98270;-77
2023/07/15 14:11:17;;;;;;;5.18;1.40;;;;;;;;;;4930667;28;99498;-77
2023/07/15 14:13:44;;;;;;;1.08;1.08;;;;;;;;;;4931529;28;100105;-77
2023/07/15 14:16:10;;;;;;;2.28;1.48;;;;;;;;;;4931396;28;98298;-77
2023/07/15 14:18:37;;;;;;;3.65;1.45;;;;;;;;;;4930503;28;98402;-79
2023/07/15 14:21:03;;;;;;;1.70;1.40;;;;;;;;;;4932058;28;98908;-77
2023/07/15 14:23:30;;;;;;;3.28;1.38;;;;;;;;;;4931208;28;98270;-77
2023/07/15 14:25:56;;;;;;;4.47;1.10;;;;;;;;;;4930629;28;99973;-77
2023/07/15 14:28:23;;;;;;;3.63;1.50;;;;;;;;;;4933721;28;100096;-77
2023/07/15 14:30:49;;;;;;;8.15;1.13;;;;;;;;;;4929014;28;98832;-77
2023/07/15 14:33:16;;;;;;;1.30;1.20;;;;;;;;;;4930249;28;99938;-77
2023/07/15 14:35:42;;;;;;;8.60;1.40;;;;;;;;;;4931596;28;98280;-77
2023/07/15 14:38:09;;;;;;;3.35;1.33;;;;;;;;;;4931486;28;99513;-76
2023/07/15 14:40:35;;;;;;;3.60;1.27;;;;;;;;;;4930112;28;99925;-79
2023/07/15 14:43:01;;;;;;;1.50;1.40;;;;;;;;;;4930570;28;98283;-76